createdAt,value
2022-11-20T00:00:22.553Z,996.40
2022-11-20T00:01:22.481Z,996.44
2022-11-20T00:02:22.549Z,996.39
2022-11-20T00:03:22.508Z,996.39
2022-11-20T00:04:22.482Z,996.39
2022-11-20T00:05:22.485Z,996.37
2022-11-20T00:06:22.455Z,996.39
2022-11-20T00:07:22.523Z,996.36
2022-11-20T00:08:22.407Z,996.35
2022-11-20T00:09:22.749Z,996.27
2022-11-20T00:10:22.423Z,996.38
2022-11-20T00:11:22.377Z,996.40
2022-11-20T00:12:22.370Z,996.34
2022-11-20T00:13:22.352Z,996.34
2022-11-20T00:14:22.385Z,996.30
2022-11-20T00:15:22.343Z,996.29
2022-11-20T00:16:22.325Z,996.30
2022-11-20T00:17:22.349Z,996.30
2022-11-20T00:18:22.297Z,996.27
2022-11-20T00:19:22.603Z,996.22
2022-11-20T00:20:22.331Z,996.24
2022-11-20T00:21:22.304Z,996.21
2022-11-20T00:22:22.290Z,996.24
2022-11-20T00:23:22.230Z,996.21
2022-11-20T00:24:22.244Z,996.20
2022-11-20T00:25:22.244Z,996.14
2022-11-20T00:26:22.264Z,996.13
2022-11-20T00:27:22.215Z,996.20
2022-11-20T00:28:22.211Z,996.21
2022-11-20T00:29:22.377Z,996.19
2022-11-20T00:30:22.186Z,996.16
2022-11-20T00:31:22.140Z,996.17
2022-11-20T00:32:22.189Z,996.17
2022-11-20T00:33:22.133Z,996.14
2022-11-20T00:34:22.172Z,996.14
2022-11-20T00:35:22.138Z,996.15
2022-11-20T00:36:22.117Z,996.16
2022-11-20T00:37:22.073Z,996.15
2022-11-20T00:38:22.086Z,996.11
2022-11-20T00:39:22.497Z,996.15
2022-11-20T00:40:22.045Z,996.12
2022-11-20T00:41:22.063Z,996.12
2022-11-20T00:42:22.023Z,996.11
2022-11-20T00:43:22.055Z,996.11
2022-11-20T00:44:22.092Z,996.14
2022-11-20T00:45:21.987Z,996.13
2022-11-20T00:46:21.986Z,996.11
2022-11-20T00:47:22.005Z,996.13
2022-11-20T00:48:21.997Z,996.13
2022-11-20T00:49:22.242Z,996.19
2022-11-20T00:50:21.974Z,996.20
2022-11-20T00:51:21.913Z,996.20
2022-11-20T00:52:21.930Z,996.15
2022-11-20T00:53:21.917Z,996.13
2022-11-20T00:54:21.917Z,996.17
2022-11-20T00:55:21.874Z,996.09
2022-11-20T00:56:21.896Z,996.15
2022-11-20T00:57:21.869Z,996.14
2022-11-20T00:58:21.853Z,996.15
2022-11-20T00:59:22.123Z,996.11
2022-11-20T01:00:21.842Z,996.16
2022-11-20T01:01:21.938Z,996.16
2022-11-20T01:02:21.840Z,996.15
2022-11-20T01:03:26.786Z,996.21
2022-11-20T01:04:22.875Z,996.14
2022-11-20T01:05:21.781Z,996.22
2022-11-20T01:06:21.779Z,996.20
2022-11-20T01:07:21.802Z,996.16
2022-11-20T01:08:21.768Z,996.22
2022-11-20T01:09:21.992Z,996.22
2022-11-20T01:10:21.720Z,996.19
2022-11-20T01:11:21.724Z,996.21
2022-11-20T01:12:21.727Z,996.21
2022-11-20T01:13:25.622Z,996.15
2022-11-20T01:14:21.667Z,996.16
2022-11-20T01:15:21.658Z,996.16
2022-11-20T01:16:21.636Z,996.16
2022-11-20T01:17:21.651Z,996.25
2022-11-20T01:18:21.642Z,996.24
2022-11-20T01:19:21.979Z,996.21
2022-11-20T01:20:21.611Z,996.23
2022-11-20T01:21:21.610Z,996.21
2022-11-20T01:22:21.581Z,996.26
2022-11-20T01:23:21.583Z,996.24
2022-11-20T01:24:21.612Z,996.23
2022-11-20T01:25:21.539Z,996.20
2022-11-20T01:26:21.572Z,996.21
2022-11-20T01:27:21.550Z,996.17
2022-11-20T01:28:21.526Z,996.18
2022-11-20T01:29:21.723Z,996.16
2022-11-20T01:30:21.549Z,996.15
2022-11-20T01:31:21.472Z,996.12
2022-11-20T01:32:21.481Z,996.09
2022-11-20T01:33:21.464Z,996.14
2022-11-20T01:34:21.450Z,996.04
2022-11-20T01:35:21.428Z,996.08
2022-11-20T01:36:21.486Z,996.09
2022-11-20T01:37:21.429Z,996.12
2022-11-20T01:38:21.413Z,996.09
2022-11-20T01:39:21.671Z,996.10
2022-11-20T01:40:21.453Z,996.08
2022-11-20T01:41:21.405Z,996.04
2022-11-20T01:42:21.353Z,996.05
2022-11-20T01:43:21.369Z,996.02
2022-11-20T01:44:21.396Z,996.03
2022-11-20T01:45:21.335Z,996.03
2022-11-20T01:46:21.364Z,996.06
2022-11-20T01:47:21.324Z,996.03
2022-11-20T01:48:21.334Z,996.04
2022-11-20T01:49:21.649Z,996.05
2022-11-20T01:50:21.292Z,996.05
2022-11-20T01:51:21.265Z,996.02
2022-11-20T01:52:21.282Z,996.04
2022-11-20T01:53:21.261Z,996.04
2022-11-20T01:54:21.225Z,996.04
2022-11-20T01:55:21.204Z,995.97
2022-11-20T01:56:21.200Z,996.05
2022-11-20T01:57:21.261Z,996.02
2022-11-20T01:58:21.220Z,996.02
2022-11-20T01:59:21.585Z,996.06
2022-11-20T02:00:21.152Z,996.01
2022-11-20T02:01:21.158Z,996.00
2022-11-20T02:02:21.197Z,995.97
2022-11-20T02:03:21.150Z,995.95
2022-11-20T02:04:21.117Z,995.97
2022-11-20T02:05:21.096Z,995.96
2022-11-20T02:06:21.106Z,995.96
2022-11-20T02:07:21.187Z,995.91
2022-11-20T02:08:21.095Z,995.93
2022-11-20T02:09:21.428Z,995.89
2022-11-20T02:10:21.074Z,995.91
2022-11-20T02:11:21.024Z,995.90
2022-11-20T02:12:21.037Z,995.89
2022-11-20T02:13:21.055Z,995.87
2022-11-20T02:14:20.985Z,995.88
2022-11-20T02:15:21.005Z,995.90
2022-11-20T02:16:20.987Z,995.88
2022-11-20T02:17:20.967Z,995.90
2022-11-20T02:18:20.989Z,995.87
2022-11-20T02:19:21.133Z,995.80
2022-11-20T02:20:20.962Z,995.84
2022-11-20T02:21:20.939Z,995.75
2022-11-20T02:22:20.938Z,995.73
2022-11-20T02:23:20.904Z,995.78
2022-11-20T02:24:20.906Z,995.80
2022-11-20T02:25:20.889Z,995.80
2022-11-20T02:26:20.885Z,995.75
2022-11-20T02:27:20.869Z,995.81
2022-11-20T02:28:20.856Z,995.78
2022-11-20T02:29:21.016Z,995.80
2022-11-20T02:30:20.816Z,995.79
2022-11-20T02:31:20.806Z,995.86
2022-11-20T02:32:20.859Z,995.87
2022-11-20T02:33:20.807Z,995.82
2022-11-20T02:34:20.813Z,995.84
2022-11-20T02:35:20.778Z,995.86
2022-11-20T02:36:20.826Z,995.88
2022-11-20T02:37:20.761Z,995.90
2022-11-20T02:38:20.767Z,995.90
2022-11-20T02:39:20.955Z,995.89
2022-11-20T02:40:20.727Z,995.89
2022-11-20T02:41:20.700Z,995.92
2022-11-20T02:42:20.686Z,995.90
2022-11-20T02:43:20.679Z,995.89
2022-11-20T02:44:20.712Z,995.89
2022-11-20T02:45:20.658Z,995.87
2022-11-20T02:46:20.642Z,995.86
2022-11-20T02:47:20.643Z,995.82
2022-11-20T02:48:20.668Z,995.85
2022-11-20T02:49:20.921Z,995.79
2022-11-20T02:50:20.611Z,995.83
2022-11-20T02:51:20.568Z,995.75
2022-11-20T02:52:20.568Z,995.79
2022-11-20T02:53:20.558Z,995.70
2022-11-20T02:54:20.608Z,995.74
2022-11-20T02:55:20.562Z,995.71
2022-11-20T02:56:20.521Z,995.67
2022-11-20T02:57:20.502Z,995.67
2022-11-20T02:58:20.490Z,995.67
2022-11-20T02:59:20.764Z,995.71
2022-11-20T03:00:20.532Z,995.70
2022-11-20T03:01:20.518Z,995.65
2022-11-20T03:02:20.451Z,995.58
2022-11-20T03:03:20.437Z,995.66
2022-11-20T03:04:20.447Z,995.66
2022-11-20T03:05:20.584Z,995.63
2022-11-20T03:06:20.442Z,995.57
2022-11-20T03:07:20.479Z,995.54
2022-11-20T03:08:20.389Z,995.58
2022-11-20T03:09:20.672Z,995.57
2022-11-20T03:10:20.404Z,995.57
2022-11-20T03:11:20.394Z,995.59
2022-11-20T03:12:20.351Z,995.54
2022-11-20T03:13:20.346Z,995.54
2022-11-20T03:14:20.311Z,995.57
2022-11-20T03:15:20.343Z,995.50
2022-11-20T03:16:20.320Z,995.53
2022-11-20T03:17:20.331Z,995.50
2022-11-20T03:18:20.295Z,995.53
2022-11-20T03:19:20.655Z,995.48
2022-11-20T03:20:20.301Z,995.46
2022-11-20T03:21:20.272Z,995.52
2022-11-20T03:22:20.232Z,995.44
2022-11-20T03:23:20.255Z,995.47
2022-11-20T03:24:20.211Z,995.49
2022-11-20T03:25:20.225Z,995.50
2022-11-20T03:26:20.224Z,995.55
2022-11-20T03:27:20.201Z,995.49
2022-11-20T03:28:20.185Z,995.49
2022-11-20T03:29:20.394Z,995.45
2022-11-20T03:30:20.155Z,995.54
2022-11-20T03:31:20.122Z,995.55
2022-11-20T03:32:20.167Z,995.53
2022-11-20T03:33:20.122Z,995.61
2022-11-20T03:34:20.108Z,995.59
2022-11-20T03:35:20.099Z,995.66
2022-11-20T03:36:20.119Z,995.65
2022-11-20T03:37:20.087Z,995.65
2022-11-20T03:38:20.113Z,995.68
2022-11-20T03:39:20.389Z,995.66
2022-11-20T03:40:20.055Z,995.68
2022-11-20T03:41:20.022Z,995.71
2022-11-20T03:42:20.005Z,995.66
2022-11-20T03:43:20.015Z,995.64
2022-11-20T03:44:20.027Z,995.69
2022-11-20T03:45:20.012Z,995.72
2022-11-20T03:46:19.978Z,995.74
2022-11-20T03:47:19.974Z,995.67
2022-11-20T03:48:19.925Z,995.65
2022-11-20T03:49:20.291Z,995.71
2022-11-20T03:50:19.970Z,995.75
2022-11-20T03:51:19.939Z,995.62
2022-11-20T03:52:19.928Z,995.60
2022-11-20T03:53:19.916Z,995.60
2022-11-20T03:54:19.865Z,995.61
2022-11-20T03:55:19.854Z,995.54
2022-11-20T03:56:19.883Z,995.60
2022-11-20T03:57:19.878Z,995.59
2022-11-20T03:58:19.879Z,995.56
2022-11-20T03:59:20.169Z,995.53
2022-11-20T04:00:19.814Z,995.57
2022-11-20T04:01:19.852Z,995.53
2022-11-20T04:02:19.867Z,995.57
2022-11-20T04:03:19.765Z,995.52
2022-11-20T04:04:19.783Z,995.50
2022-11-20T04:05:19.789Z,995.50
2022-11-20T04:06:19.750Z,995.51
2022-11-20T04:07:19.803Z,995.51
2022-11-20T04:08:19.718Z,995.46
2022-11-20T04:09:20.082Z,995.47
2022-11-20T04:10:19.732Z,995.46
2022-11-20T04:11:19.703Z,995.45
2022-11-20T04:12:19.684Z,995.48
2022-11-20T04:13:19.690Z,995.55
2022-11-20T04:14:19.660Z,995.54
2022-11-20T04:15:19.640Z,995.55
2022-11-20T04:16:19.661Z,995.54
2022-11-20T04:17:19.607Z,995.54
2022-11-20T04:18:19.598Z,995.51
2022-11-20T04:19:19.855Z,995.56
2022-11-20T04:20:19.597Z,995.50
2022-11-20T04:21:19.599Z,995.56
2022-11-20T04:22:19.573Z,995.49
2022-11-20T04:23:21.485Z,995.49
2022-11-20T04:24:20.592Z,995.49
2022-11-20T04:25:19.531Z,995.48
2022-11-20T04:26:19.529Z,995.53
2022-11-20T04:27:19.501Z,995.50
2022-11-20T04:28:19.511Z,995.48
2022-11-20T04:29:19.890Z,995.54
2022-11-20T04:30:19.544Z,995.49
2022-11-20T04:31:19.482Z,995.48
2022-11-20T04:32:19.462Z,995.49
2022-11-20T04:33:19.442Z,995.49
2022-11-20T04:34:19.463Z,995.46
2022-11-20T04:35:19.409Z,995.51
2022-11-20T04:36:19.427Z,995.48
2022-11-20T04:37:19.391Z,995.49
2022-11-20T04:38:19.375Z,995.50
2022-11-20T04:39:19.642Z,995.51
2022-11-20T04:40:19.349Z,995.46
2022-11-20T04:41:19.362Z,995.47
2022-11-20T04:42:19.364Z,995.45
2022-11-20T04:43:19.323Z,995.41
2022-11-20T04:44:19.331Z,995.44
2022-11-20T04:45:19.314Z,995.44
2022-11-20T04:46:19.314Z,995.46
2022-11-20T04:47:19.270Z,995.47
2022-11-20T04:48:19.303Z,995.36
2022-11-20T04:49:19.560Z,995.38
2022-11-20T04:50:19.255Z,995.35
2022-11-20T04:51:19.244Z,995.40
2022-11-20T04:52:19.248Z,995.38
2022-11-20T04:53:19.275Z,995.41
2022-11-20T04:54:19.235Z,995.45
2022-11-20T04:55:19.181Z,995.47
2022-11-20T04:56:19.192Z,995.37
2022-11-20T04:57:19.176Z,995.42
2022-11-20T04:58:19.152Z,995.46
2022-11-20T04:59:19.396Z,995.42
2022-11-20T05:00:19.136Z,995.41
2022-11-20T05:01:19.165Z,995.43
2022-11-20T05:02:19.102Z,995.46
2022-11-20T05:03:19.135Z,995.48
2022-11-20T05:04:19.126Z,995.43
2022-11-20T05:05:19.086Z,995.38
2022-11-20T05:06:19.061Z,995.42
2022-11-20T05:07:19.084Z,995.43
2022-11-20T05:08:19.046Z,995.42
2022-11-20T05:09:19.440Z,995.43
2022-11-20T05:10:19.037Z,995.38
2022-11-20T05:11:19.009Z,995.38
2022-11-20T05:12:19.006Z,995.44
2022-11-20T05:13:19.026Z,995.40
2022-11-20T05:14:19.004Z,995.39
2022-11-20T05:15:18.990Z,995.40
2022-11-20T05:16:18.986Z,995.40
2022-11-20T05:17:18.947Z,995.36
2022-11-20T05:18:18.931Z,995.42
2022-11-20T05:19:19.154Z,995.42
2022-11-20T05:20:18.944Z,995.38
2022-11-20T05:21:18.914Z,995.39
2022-11-20T05:22:18.898Z,995.39
2022-11-20T05:23:18.877Z,995.38
2022-11-20T05:24:18.865Z,995.39
2022-11-20T05:25:18.871Z,995.39
2022-11-20T05:26:18.965Z,995.43
2022-11-20T05:27:18.814Z,995.42
2022-11-20T05:28:18.818Z,995.44
2022-11-20T05:29:19.110Z,995.46
2022-11-20T05:30:18.785Z,995.57
2022-11-20T05:31:23.453Z,995.59
2022-11-20T05:32:19.809Z,995.52
2022-11-20T05:33:18.767Z,995.57
2022-11-20T05:34:18.765Z,995.59
2022-11-20T05:35:18.762Z,995.56
2022-11-20T05:36:18.785Z,995.50
2022-11-20T05:37:18.717Z,995.57
2022-11-20T05:38:18.728Z,995.45
2022-11-20T05:39:18.797Z,995.45
2022-11-20T05:40:18.739Z,995.44
2022-11-20T05:41:18.666Z,995.39
2022-11-20T05:42:18.710Z,995.43
2022-11-20T05:43:18.646Z,995.42
2022-11-20T05:44:18.648Z,995.47
2022-11-20T05:45:18.647Z,995.44
2022-11-20T05:46:21.273Z,995.41
2022-11-20T05:47:19.641Z,995.44
2022-11-20T05:48:18.631Z,995.48
2022-11-20T05:49:18.708Z,995.39
2022-11-20T05:50:18.581Z,995.47
2022-11-20T05:51:18.560Z,995.42
2022-11-20T05:52:18.574Z,995.45
2022-11-20T05:53:18.596Z,995.42
2022-11-20T05:54:18.559Z,995.38
2022-11-20T05:55:18.532Z,995.41
2022-11-20T05:56:18.565Z,995.34
2022-11-20T05:57:18.486Z,995.35
2022-11-20T05:58:18.495Z,995.33
2022-11-20T05:59:18.749Z,995.32
2022-11-20T06:00:18.471Z,995.28
2022-11-20T06:01:18.483Z,995.25
2022-11-20T06:02:18.491Z,995.16
2022-11-20T06:03:18.434Z,995.23
2022-11-20T06:04:18.437Z,995.21
2022-11-20T06:05:18.419Z,995.25
2022-11-20T06:06:18.393Z,995.26
2022-11-20T06:07:18.391Z,995.27
2022-11-20T06:08:18.359Z,995.30
2022-11-20T06:09:18.567Z,995.26
2022-11-20T06:10:18.360Z,995.29
2022-11-20T06:11:18.352Z,995.26
2022-11-20T06:12:18.320Z,995.34
2022-11-20T06:13:18.311Z,995.36
2022-11-20T06:14:18.302Z,995.38
2022-11-20T06:15:18.364Z,995.42
2022-11-20T06:16:18.299Z,995.38
2022-11-20T06:17:18.275Z,995.42
2022-11-20T06:18:18.260Z,995.37
2022-11-20T06:19:18.315Z,995.44
2022-11-20T06:20:18.259Z,995.42
2022-11-20T06:21:18.267Z,995.42
2022-11-20T06:22:18.226Z,995.47
2022-11-20T06:23:18.224Z,995.48
2022-11-20T06:24:18.201Z,995.45
2022-11-20T06:25:18.224Z,995.45
2022-11-20T06:26:18.161Z,995.43
2022-11-20T06:27:18.194Z,995.47
2022-11-20T06:28:18.175Z,995.55
2022-11-20T06:29:18.227Z,995.53
2022-11-20T06:30:18.161Z,995.55
2022-11-20T06:31:18.115Z,995.59
2022-11-20T06:32:18.146Z,995.56
2022-11-20T06:33:18.112Z,995.51
2022-11-20T06:34:18.095Z,995.50
2022-11-20T06:35:18.073Z,995.51
2022-11-20T06:36:18.092Z,995.49
2022-11-20T06:37:18.082Z,995.59
2022-11-20T06:38:18.053Z,995.57
2022-11-20T06:39:18.019Z,995.55
2022-11-20T06:40:18.025Z,995.59
2022-11-20T06:41:18.102Z,995.58
2022-11-20T06:42:17.985Z,995.56
2022-11-20T06:43:18.014Z,995.54
2022-11-20T06:44:18.016Z,995.56
2022-11-20T06:45:17.956Z,995.52
2022-11-20T06:46:17.956Z,995.55
2022-11-20T06:47:17.966Z,995.60
2022-11-20T06:48:17.957Z,995.56
2022-11-20T06:49:17.935Z,995.60
2022-11-20T06:50:17.907Z,995.59
2022-11-20T06:51:17.887Z,995.53
2022-11-20T06:52:17.874Z,995.60
2022-11-20T06:53:17.898Z,995.61
2022-11-20T06:54:17.888Z,995.53
2022-11-20T06:55:17.887Z,995.59
2022-11-20T06:56:17.850Z,995.52
2022-11-20T06:57:17.837Z,995.52
2022-11-20T06:58:17.853Z,995.52
2022-11-20T06:59:17.834Z,995.50
2022-11-20T07:00:17.835Z,995.50
2022-11-20T07:01:17.857Z,995.45
2022-11-20T07:02:17.766Z,995.44
2022-11-20T07:03:17.769Z,995.45
2022-11-20T07:04:17.766Z,995.53
2022-11-20T07:05:17.750Z,995.53
2022-11-20T07:06:17.793Z,995.57
2022-11-20T07:07:17.738Z,995.54
2022-11-20T07:08:17.708Z,995.49
2022-11-20T07:09:17.725Z,995.49
2022-11-20T07:10:17.694Z,995.48
2022-11-20T07:11:17.680Z,995.53
2022-11-20T07:12:17.659Z,995.49
2022-11-20T07:13:17.644Z,995.55
2022-11-20T07:14:17.671Z,995.48
2022-11-20T07:15:17.630Z,995.43
2022-11-20T07:16:17.626Z,995.39
2022-11-20T07:17:17.595Z,995.36
2022-11-20T07:18:17.585Z,995.33
2022-11-20T07:19:17.609Z,995.30
2022-11-20T07:20:17.555Z,995.23
2022-11-20T07:21:17.633Z,995.25
2022-11-20T07:22:17.548Z,995.24
2022-11-20T07:23:17.527Z,995.21
2022-11-20T07:24:17.568Z,995.22
2022-11-20T07:25:17.533Z,995.25
2022-11-20T07:26:17.498Z,995.26
2022-11-20T07:27:17.506Z,995.27
2022-11-20T07:28:17.466Z,995.28
2022-11-20T07:29:17.502Z,995.28
2022-11-20T07:30:17.523Z,995.24
2022-11-20T07:31:19.425Z,995.25
2022-11-20T07:32:17.461Z,995.27
2022-11-20T07:33:17.418Z,995.28
2022-11-20T07:34:17.431Z,995.26
2022-11-20T07:35:17.408Z,995.32
2022-11-20T07:36:17.408Z,995.27
2022-11-20T07:37:17.368Z,995.30
2022-11-20T07:38:17.386Z,995.22
2022-11-20T07:39:17.380Z,995.16
2022-11-20T07:40:17.339Z,995.18
2022-11-20T07:41:17.362Z,995.17
2022-11-20T07:42:17.362Z,995.10
2022-11-20T07:43:17.322Z,995.09
2022-11-20T07:44:17.291Z,995.13
2022-11-20T07:45:17.291Z,995.06
2022-11-20T07:46:17.301Z,995.06
2022-11-20T07:47:17.272Z,995.04
2022-11-20T07:48:17.269Z,995.12
2022-11-20T07:49:17.238Z,995.13
2022-11-20T07:50:17.224Z,995.18
2022-11-20T07:51:17.274Z,995.17
2022-11-20T07:52:17.200Z,995.09
2022-11-20T07:53:17.213Z,995.07
2022-11-20T07:54:17.206Z,995.12
2022-11-20T07:55:17.183Z,995.15
2022-11-20T07:56:17.182Z,995.05
2022-11-20T07:57:17.213Z,995.02
2022-11-20T07:58:17.156Z,995.01
2022-11-20T07:59:17.163Z,995.07
2022-11-20T08:00:17.135Z,995.04
2022-11-20T08:01:17.121Z,995.09
2022-11-20T08:02:17.111Z,995.17
2022-11-20T08:03:21.643Z,995.16
2022-11-20T08:04:18.090Z,995.20
2022-11-20T08:05:17.116Z,995.26
2022-11-20T08:06:17.097Z,995.28
2022-11-20T08:07:17.088Z,995.29
2022-11-20T08:08:17.034Z,995.24
2022-11-20T08:09:17.055Z,995.32
2022-11-20T08:10:17.046Z,995.13
2022-11-20T08:11:17.004Z,995.06
2022-11-20T08:12:16.977Z,995.04
2022-11-20T08:13:16.961Z,995.02
2022-11-20T08:14:17.036Z,995.01
2022-11-20T08:15:16.976Z,995.02
2022-11-20T08:16:16.956Z,994.97
2022-11-20T08:17:16.935Z,995.01
2022-11-20T08:18:31.145Z,994.97
2022-11-20T08:19:17.978Z,995.03
2022-11-20T08:20:16.896Z,994.99
2022-11-20T08:21:16.872Z,995.04
2022-11-20T08:22:16.899Z,995.01
2022-11-20T08:23:16.883Z,994.99
2022-11-20T08:24:16.875Z,995.07
2022-11-20T08:25:16.885Z,995.13
2022-11-20T08:26:16.857Z,995.15
2022-11-20T08:27:16.814Z,995.18
2022-11-20T08:28:21.176Z,995.10
2022-11-20T08:29:16.819Z,995.16
2022-11-20T08:30:16.833Z,995.15
2022-11-20T08:31:16.773Z,995.12
2022-11-20T08:32:16.777Z,995.06
2022-11-20T08:33:16.777Z,995.12
2022-11-20T08:34:19.193Z,995.14
2022-11-20T08:35:16.740Z,995.12
2022-11-20T08:36:16.758Z,995.11
2022-11-20T08:37:16.719Z,995.06
2022-11-20T08:38:16.705Z,995.04
2022-11-20T08:39:16.740Z,994.96
2022-11-20T08:40:19.576Z,995.00
2022-11-20T08:41:16.657Z,995.01
2022-11-20T08:42:16.657Z,995.01
2022-11-20T08:43:16.664Z,995.01
2022-11-20T08:44:16.637Z,995.01
2022-11-20T08:45:16.636Z,995.07
2022-11-20T08:46:16.630Z,995.04
2022-11-20T08:47:16.601Z,994.97
2022-11-20T08:48:16.596Z,995.01
2022-11-20T08:49:16.596Z,994.97
2022-11-20T08:50:16.571Z,994.99
2022-11-20T08:51:16.547Z,994.91
2022-11-20T08:52:16.556Z,994.88
2022-11-20T08:53:16.557Z,994.96
2022-11-20T08:54:16.523Z,994.94
2022-11-20T08:55:16.541Z,994.95
2022-11-20T08:56:16.548Z,994.95
2022-11-20T08:57:16.496Z,994.96
2022-11-20T08:58:16.499Z,994.95
2022-11-20T08:59:31.308Z,994.91
2022-11-20T09:00:17.493Z,994.92
2022-11-20T09:01:16.508Z,994.94
2022-11-20T09:02:16.446Z,994.90
2022-11-20T09:03:16.408Z,994.89
2022-11-20T09:04:16.419Z,994.82
2022-11-20T09:05:16.399Z,994.84
2022-11-20T09:06:16.414Z,994.87
2022-11-20T09:07:16.481Z,994.74
2022-11-20T09:08:16.357Z,994.76
2022-11-20T09:09:16.348Z,994.74
2022-11-20T09:10:24.156Z,994.75
2022-11-20T09:11:17.353Z,994.78
2022-11-20T09:12:16.323Z,994.78
2022-11-20T09:13:16.332Z,994.82
2022-11-20T09:14:16.302Z,994.84
2022-11-20T09:15:16.323Z,994.94
2022-11-20T09:16:16.290Z,994.85
2022-11-20T09:17:16.250Z,994.86
2022-11-20T09:18:16.261Z,994.93
2022-11-20T09:20:16.252Z,994.92
2022-11-20T09:21:16.338Z,994.86
2022-11-20T09:22:16.206Z,994.86
2022-11-20T09:23:16.233Z,994.84
2022-11-20T09:24:16.216Z,994.85
2022-11-20T09:25:16.171Z,994.78
2022-11-20T09:26:16.167Z,994.83
2022-11-20T09:27:16.169Z,994.79
2022-11-20T09:28:16.167Z,994.78
2022-11-20T09:29:16.149Z,994.79
2022-11-20T09:30:16.115Z,994.77
2022-11-20T09:31:16.123Z,994.76
2022-11-20T09:32:16.108Z,994.72
2022-11-20T09:33:16.126Z,994.73
2022-11-20T09:34:16.114Z,994.74
2022-11-20T09:35:16.075Z,994.76
2022-11-20T09:36:16.043Z,994.70
2022-11-20T09:37:16.043Z,994.73
2022-11-20T09:38:16.051Z,994.68
2022-11-20T09:39:16.020Z,994.64
2022-11-20T09:40:16.046Z,994.61
2022-11-20T09:41:16.026Z,994.67
2022-11-20T09:42:15.973Z,994.65
2022-11-20T09:43:16.007Z,994.67
2022-11-20T09:44:15.976Z,994.58
2022-11-20T09:45:16.012Z,994.62
2022-11-20T09:46:15.947Z,994.63
2022-11-20T09:47:15.949Z,994.66
2022-11-20T09:48:15.948Z,994.62
2022-11-20T09:49:15.923Z,994.71
2022-11-20T09:50:15.923Z,994.65
2022-11-20T09:51:15.904Z,994.65
2022-11-20T09:52:15.865Z,994.68
2022-11-20T09:53:15.865Z,994.71
2022-11-20T09:54:15.866Z,994.69
2022-11-20T09:55:15.888Z,994.69
2022-11-20T09:56:19.814Z,994.67
2022-11-20T09:57:16.814Z,994.70
2022-11-20T09:58:15.827Z,994.73
2022-11-20T09:59:15.832Z,994.65
2022-11-20T10:00:15.837Z,994.63
2022-11-20T10:01:15.841Z,994.64
2022-11-20T10:02:15.771Z,994.70
2022-11-20T10:03:15.779Z,994.63
2022-11-20T10:04:15.757Z,994.65
2022-11-20T10:05:15.769Z,994.65
2022-11-20T10:06:15.736Z,994.60
2022-11-20T10:07:32.770Z,994.59
2022-11-20T10:08:16.797Z,994.53
2022-11-20T10:09:15.691Z,994.57
2022-11-20T10:10:15.688Z,994.54
2022-11-20T10:11:15.701Z,994.50
2022-11-20T10:12:15.688Z,994.50
2022-11-20T10:13:15.628Z,994.42
2022-11-20T10:14:15.647Z,994.49
2022-11-20T10:15:15.651Z,994.48
2022-11-20T10:16:15.637Z,994.36
2022-11-20T10:17:15.597Z,994.39
2022-11-20T10:18:15.671Z,994.43
2022-11-20T10:19:15.618Z,994.43
2022-11-20T10:20:15.579Z,994.48
2022-11-20T10:21:15.561Z,994.41
2022-11-20T10:22:15.543Z,994.41
2022-11-20T10:23:15.581Z,994.44
2022-11-20T10:24:15.557Z,994.42
2022-11-20T10:25:15.523Z,994.41
2022-11-20T10:26:15.528Z,994.38
2022-11-20T10:27:15.480Z,994.41
2022-11-20T10:28:15.489Z,994.42
2022-11-20T10:29:15.463Z,994.49
2022-11-20T10:30:15.440Z,994.48
2022-11-20T10:31:15.443Z,994.48
2022-11-20T10:32:15.463Z,994.50
2022-11-20T10:33:15.467Z,994.47
2022-11-20T10:34:20.952Z,994.49
2022-11-20T10:35:16.400Z,994.48
2022-11-20T10:36:15.393Z,994.45
2022-11-20T10:37:15.393Z,994.48
2022-11-20T10:38:15.350Z,994.49
2022-11-20T10:39:15.400Z,994.46
2022-11-20T10:40:15.331Z,994.47
2022-11-20T10:41:15.330Z,994.50
2022-11-20T10:42:15.324Z,994.45
2022-11-20T10:43:15.374Z,994.45
2022-11-20T10:44:15.309Z,994.48
2022-11-20T10:45:15.284Z,994.46
2022-11-20T10:46:15.276Z,994.46
2022-11-20T10:47:15.263Z,994.34
2022-11-20T10:48:15.295Z,994.38
2022-11-20T10:49:15.232Z,994.39
2022-11-20T10:50:20.609Z,994.38
2022-11-20T10:51:16.212Z,994.40
2022-11-20T10:52:15.203Z,994.30
2022-11-20T10:53:15.237Z,994.30
2022-11-20T10:54:15.272Z,994.32
2022-11-20T10:55:15.187Z,994.31
2022-11-20T10:56:15.217Z,994.30
2022-11-20T10:57:15.173Z,994.31
2022-11-20T10:58:15.187Z,994.30
2022-11-20T10:59:15.151Z,994.37
2022-11-20T11:00:15.235Z,994.30
2022-11-20T11:01:15.170Z,994.35
2022-11-20T11:02:15.094Z,994.35
2022-11-20T11:03:15.097Z,994.34
2022-11-20T11:04:15.137Z,994.34
2022-11-20T11:05:15.072Z,994.31
2022-11-20T11:06:15.063Z,994.37
2022-11-20T11:07:15.072Z,994.28
2022-11-20T11:08:15.079Z,994.35
2022-11-20T11:09:15.018Z,994.29
2022-11-20T11:10:15.081Z,994.27
2022-11-20T11:11:15.009Z,994.26
2022-11-20T11:12:14.986Z,994.28
2022-11-20T11:13:15.006Z,994.27
2022-11-20T11:14:14.955Z,994.24
2022-11-20T11:15:14.959Z,994.23
2022-11-20T11:16:14.965Z,994.24
2022-11-20T11:17:14.916Z,994.21
2022-11-20T11:18:14.978Z,994.27
2022-11-20T11:19:14.932Z,994.24
2022-11-20T11:20:14.986Z,994.20
2022-11-20T11:21:14.878Z,994.21
2022-11-20T11:22:14.910Z,994.22
2022-11-20T11:23:14.868Z,994.20
2022-11-20T11:24:40.376Z,994.19
2022-11-20T11:25:15.848Z,994.21
2022-11-20T11:26:14.846Z,994.18
2022-11-20T11:27:17.392Z,994.17
2022-11-20T11:28:14.811Z,994.19
2022-11-20T11:29:14.784Z,994.20
2022-11-20T11:30:14.836Z,994.17
2022-11-20T11:31:14.821Z,994.15
2022-11-20T11:32:14.761Z,994.15
2022-11-20T11:33:14.737Z,994.10
2022-11-20T11:34:14.738Z,994.11
2022-11-20T11:35:14.708Z,994.14
2022-11-20T11:36:14.743Z,994.16
2022-11-20T11:37:14.724Z,994.13
2022-11-20T11:38:14.787Z,994.09
2022-11-20T11:39:14.669Z,994.07
2022-11-20T11:40:30.091Z,994.04
2022-11-20T11:41:15.666Z,993.99
2022-11-20T11:42:14.635Z,994.03
2022-11-20T11:43:14.634Z,993.95
2022-11-20T11:44:14.630Z,993.93
2022-11-20T11:45:14.633Z,993.94
2022-11-20T11:46:14.634Z,993.90
2022-11-20T11:47:14.609Z,993.86
2022-11-20T11:48:14.652Z,993.85
2022-11-20T11:49:14.575Z,993.87
2022-11-20T11:50:14.582Z,993.86
2022-11-20T11:51:14.592Z,993.85
2022-11-20T11:52:14.549Z,993.83
2022-11-20T11:53:14.526Z,993.70
2022-11-20T11:54:14.536Z,993.71
2022-11-20T11:55:14.525Z,993.72
2022-11-20T11:56:14.493Z,993.70
2022-11-20T11:57:14.492Z,993.72
2022-11-20T11:58:14.453Z,993.69
2022-11-20T11:59:14.455Z,993.69
2022-11-20T12:00:14.459Z,993.63
2022-11-20T12:01:14.440Z,993.64
2022-11-20T12:02:14.467Z,993.60
2022-11-20T12:03:14.415Z,993.62
2022-11-20T12:04:14.415Z,993.64
2022-11-20T12:05:14.465Z,993.63
2022-11-20T12:06:14.394Z,993.63
2022-11-20T12:07:39.267Z,993.66
2022-11-20T12:08:15.409Z,993.62
2022-11-20T12:09:14.345Z,993.61
2022-11-20T12:10:14.349Z,993.63
2022-11-20T12:11:14.337Z,993.58
2022-11-20T12:12:14.346Z,993.57
2022-11-20T12:13:14.286Z,993.55
2022-11-20T12:14:14.285Z,993.55
2022-11-20T12:15:14.266Z,993.53
2022-11-20T12:16:14.308Z,993.50
2022-11-20T12:17:14.301Z,993.49
2022-11-20T12:18:14.239Z,993.51
2022-11-20T12:19:14.238Z,993.49
2022-11-20T12:20:14.237Z,993.44
2022-11-20T12:21:14.211Z,993.38
2022-11-20T12:22:14.209Z,993.43
2022-11-20T12:23:14.207Z,993.37
2022-11-20T12:24:14.159Z,993.37
2022-11-20T12:25:14.156Z,993.36
2022-11-20T12:26:14.127Z,993.42
2022-11-20T12:27:14.151Z,993.42
2022-11-20T12:28:14.096Z,993.38
2022-11-20T12:29:14.100Z,993.36